sensor_id;sensor_type;location;lat;lon;timestamp;P1;durP1;ratioP1;P2;durP2;ratioP2
74967;SDS011;63523;51.880;12.630;2022-11-12T00:02:19;11.90;;;4.27;;
74967;SDS011;63523;51.880;12.630;2022-11-12T00:04:44;11.80;;;4.10;;
74967;SDS011;63523;51.880;12.630;2022-11-12T00:07:10;9.75;;;3.90;;
74967;SDS011;63523;51.880;12.630;2022-11-12T00:09:35;9.27;;;3.53;;
74967;SDS011;63523;51.880;12.630;2022-11-12T00:12:01;10.73;;;3.60;;
74967;SDS011;63523;51.880;12.630;2022-11-12T00:14:26;9.85;;;4.20;;
74967;SDS011;63523;51.880;12.630;2022-11-12T00:16:52;11.80;;;4.83;;
74967;SDS011;63523;51.880;12.630;2022-11-12T00:19:17;12.20;;;3.90;;
74967;SDS011;63523;51.880;12.630;2022-11-12T00:21:43;9.35;;;4.18;;
74967;SDS011;63523;51.880;12.630;2022-11-12T00:24:08;8.70;;;3.80;;
74967;SDS011;63523;51.880;12.630;2022-11-12T00:26:34;9.47;;;3.53;;
74967;SDS011;63523;51.880;12.630;2022-11-12T00:28:59;8.67;;;3.40;;
74967;SDS011;63523;51.880;12.630;2022-11-12T00:31:25;8.23;;;3.47;;
74967;SDS011;63523;51.880;12.630;2022-11-12T00:33:50;10.07;;;3.70;;
74967;SDS011;63523;51.880;12.630;2022-11-12T00:36:16;10.77;;;3.60;;
74967;SDS011;63523;51.880;12.630;2022-11-12T00:38:41;8.60;;;3.65;;
74967;SDS011;63523;51.880;12.630;2022-11-12T00:41:07;10.73;;;3.50;;
74967;SDS011;63523;51.880;12.630;2022-11-12T00:43:32;10.03;;;4.20;;
74967;SDS011;63523;51.880;12.630;2022-11-12T00:45:58;12.25;;;5.10;;
74967;SDS011;63523;51.880;12.630;2022-11-12T00:48:23;9.17;;;4.47;;
74967;SDS011;63523;51.880;12.630;2022-11-12T00:50:49;11.67;;;5.57;;
74967;SDS011;63523;51.880;12.630;2022-11-12T00:53:14;11.27;;;5.35;;
74967;SDS011;63523;51.880;12.630;2022-11-12T00:55:40;11.00;;;4.93;;
74967;SDS011;63523;51.880;12.630;2022-11-12T00:58:05;10.33;;;4.30;;
74967;SDS011;63523;51.880;12.630;2022-11-12T01:00:31;10.43;;;4.47;;
74967;SDS011;63523;51.880;12.630;2022-11-12T01:02:56;9.27;;;4.20;;
74967;SDS011;63523;51.880;12.630;2022-11-12T01:05:22;9.73;;;4.33;;
74967;SDS011;63523;51.880;12.630;2022-11-12T01:07:47;9.33;;;3.97;;
74967;SDS011;63523;51.880;12.630;2022-11-12T01:10:13;10.30;;;4.03;;
74967;SDS011;63523;51.880;12.630;2022-11-12T01:12:38;11.73;;;3.97;;
74967;SDS011;63523;51.880;12.630;2022-11-12T01:15:04;12.20;;;3.83;;
74967;SDS011;63523;51.880;12.630;2022-11-12T01:17:31;11.57;;;4.35;;
74967;SDS011;63523;51.880;12.630;2022-11-12T01:19:57;9.02;;;3.75;;
74967;SDS011;63523;51.880;12.630;2022-11-12T01:22:22;7.87;;;3.53;;
74967;SDS011;63523;51.880;12.630;2022-11-12T01:24:48;8.95;;;4.00;;
74967;SDS011;63523;51.880;12.630;2022-11-12T01:27:14;11.17;;;3.90;;
74967;SDS011;63523;51.880;12.630;2022-11-12T01:29:39;10.32;;;3.85;;
74967;SDS011;63523;51.880;12.630;2022-11-12T01:32:05;11.03;;;3.90;;
74967;SDS011;63523;51.880;12.630;2022-11-12T01:34:31;9.90;;;4.03;;
74967;SDS011;63523;51.880;12.630;2022-11-12T01:36:57;9.20;;;3.27;;
74967;SDS011;63523;51.880;12.630;2022-11-12T01:39:22;10.00;;;3.55;;
74967;SDS011;63523;51.880;12.630;2022-11-12T01:41:48;6.93;;;3.03;;
74967;SDS011;63523;51.880;12.630;2022-11-12T01:44:21;9.10;;;3.30;;
74967;SDS011;63523;51.880;12.630;2022-11-12T01:49:28;9.30;;;3.25;;
74967;SDS011;63523;51.880;12.630;2022-11-12T01:52:01;8.48;;;3.72;;
74967;SDS011;63523;51.880;12.630;2022-11-12T01:54:44;8.98;;;3.40;;
74967;SDS011;63523;51.880;12.630;2022-11-12T01:57:13;8.77;;;3.75;;
74967;SDS011;63523;51.880;12.630;2022-11-12T01:59:43;7.73;;;3.43;;
74967;SDS011;63523;51.880;12.630;2022-11-12T02:02:11;8.00;;;3.40;;
74967;SDS011;63523;51.880;12.630;2022-11-12T02:04:37;8.80;;;3.10;;
74967;SDS011;63523;51.880;12.630;2022-11-12T02:07:05;9.10;;;2.97;;
74967;SDS011;63523;51.880;12.630;2022-11-12T02:09:31;9.00;;;3.40;;
74967;SDS011;63523;51.880;12.630;2022-11-12T02:11:57;8.70;;;3.20;;
74967;SDS011;63523;51.880;12.630;2022-11-12T02:14:24;8.63;;;3.17;;
74967;SDS011;63523;51.880;12.630;2022-11-12T02:16:49;9.07;;;3.07;;
74967;SDS011;63523;51.880;12.630;2022-11-12T02:19:15;9.73;;;3.10;;
74967;SDS011;63523;51.880;12.630;2022-11-12T02:21:41;9.10;;;3.10;;
74967;SDS011;63523;51.880;12.630;2022-11-12T02:26:37;8.82;;;3.30;;
74967;SDS011;63523;51.880;12.630;2022-11-12T02:29:10;10.43;;;3.70;;
74967;SDS011;63523;51.880;12.630;2022-11-12T02:31:36;10.37;;;3.63;;
74967;SDS011;63523;51.880;12.630;2022-11-12T02:34:02;8.97;;;3.40;;
74967;SDS011;63523;51.880;12.630;2022-11-12T02:36:28;9.10;;;3.08;;
74967;SDS011;63523;51.880;12.630;2022-11-12T02:38:54;7.60;;;3.05;;
74967;SDS011;63523;51.880;12.630;2022-11-12T02:41:19;9.50;;;3.20;;
74967;SDS011;63523;51.880;12.630;2022-11-12T02:43:45;8.15;;;3.20;;
74967;SDS011;63523;51.880;12.630;2022-11-12T02:46:11;9.37;;;3.13;;
74967;SDS011;63523;51.880;12.630;2022-11-12T02:48:37;9.77;;;3.38;;
74967;SDS011;63523;51.880;12.630;2022-11-12T02:51:03;8.17;;;3.40;;
74967;SDS011;63523;51.880;12.630;2022-11-12T02:53:28;8.68;;;3.28;;
74967;SDS011;63523;51.880;12.630;2022-11-12T02:55:56;9.05;;;3.10;;
74967;SDS011;63523;51.880;12.630;2022-11-12T02:58:22;8.53;;;3.20;;
74967;SDS011;63523;51.880;12.630;2022-11-12T03:00:48;8.85;;;3.17;;
74967;SDS011;63523;51.880;12.630;2022-11-12T03:03:14;10.03;;;3.03;;
74967;SDS011;63523;51.880;12.630;2022-11-12T03:05:40;7.03;;;3.00;;
74967;SDS011;63523;51.880;12.630;2022-11-12T03:08:06;9.30;;;3.43;;
74967;SDS011;63523;51.880;12.630;2022-11-12T03:10:32;9.77;;;3.28;;
74967;SDS011;63523;51.880;12.630;2022-11-12T03:13:01;8.85;;;2.92;;
74967;SDS011;63523;51.880;12.630;2022-11-12T03:15:27;7.25;;;2.85;;
74967;SDS011;63523;51.880;12.630;2022-11-12T03:17:54;8.47;;;2.93;;
74967;SDS011;63523;51.880;12.630;2022-11-12T03:20:21;8.60;;;3.05;;
74967;SDS011;63523;51.880;12.630;2022-11-12T03:23:03;7.17;;;2.53;;
74967;SDS011;63523;51.880;12.630;2022-11-12T03:25:30;8.00;;;3.10;;
74967;SDS011;63523;51.880;12.630;2022-11-12T03:28:00;7.50;;;2.80;;
74967;SDS011;63523;51.880;12.630;2022-11-12T03:30:32;7.55;;;2.80;;
74967;SDS011;63523;51.880;12.630;2022-11-12T03:32:59;7.70;;;3.27;;
74967;SDS011;63523;51.880;12.630;2022-11-12T03:35:25;7.70;;;2.55;;
74967;SDS011;63523;51.880;12.630;2022-11-12T03:37:51;7.20;;;2.67;;
74967;SDS011;63523;51.880;12.630;2022-11-12T03:40:20;8.18;;;2.90;;
74967;SDS011;63523;51.880;12.630;2022-11-12T03:42:49;8.13;;;3.00;;
74967;SDS011;63523;51.880;12.630;2022-11-12T03:45:16;6.47;;;2.58;;
74967;SDS011;63523;51.880;12.630;2022-11-12T03:47:50;6.32;;;2.70;;
74967;SDS011;63523;51.880;12.630;2022-11-12T03:50:18;6.93;;;2.63;;
74967;SDS011;63523;51.880;12.630;2022-11-12T03:52:45;9.05;;;2.85;;
74967;SDS011;63523;51.880;12.630;2022-11-12T03:55:12;6.80;;;2.45;;
74967;SDS011;63523;51.880;12.630;2022-11-12T03:57:39;8.20;;;3.00;;
74967;SDS011;63523;51.880;12.630;2022-11-12T04:00:05;6.17;;;2.60;;
74967;SDS011;63523;51.880;12.630;2022-11-12T04:02:31;8.13;;;2.72;;
74967;SDS011;63523;51.880;12.630;2022-11-12T04:04:57;8.40;;;2.43;;
74967;SDS011;63523;51.880;12.630;2022-11-12T04:07:41;8.07;;;2.65;;
74967;SDS011;63523;51.880;12.630;2022-11-12T04:10:25;9.35;;;2.90;;
74967;SDS011;63523;51.880;12.630;2022-11-12T04:12:53;7.88;;;2.88;;
74967;SDS011;63523;51.880;12.630;2022-11-12T04:15:36;9.45;;;3.15;;
74967;SDS011;63523;51.880;12.630;2022-11-12T04:18:02;7.77;;;3.13;;
74967;SDS011;63523;51.880;12.630;2022-11-12T04:20:47;9.32;;;3.00;;
74967;SDS011;63523;51.880;12.630;2022-11-12T04:23:39;10.33;;;3.23;;
74967;SDS011;63523;51.880;12.630;2022-11-12T04:26:05;8.57;;;3.08;;
74967;SDS011;63523;51.880;12.630;2022-11-12T04:28:48;9.02;;;2.63;;
74967;SDS011;63523;51.880;12.630;2022-11-12T04:31:32;7.15;;;2.65;;
74967;SDS011;63523;51.880;12.630;2022-11-12T04:33:58;6.83;;;2.67;;
74967;SDS011;63523;51.880;12.630;2022-11-12T04:36:43;8.95;;;2.70;;
74967;SDS011;63523;51.880;12.630;2022-11-12T04:39:09;8.80;;;3.10;;
74967;SDS011;63523;51.880;12.630;2022-11-12T04:41:34;7.80;;;2.90;;
74967;SDS011;63523;51.880;12.630;2022-11-12T04:44:18;8.88;;;2.90;;
74967;SDS011;63523;51.880;12.630;2022-11-12T04:47:02;9.35;;;2.65;;
74967;SDS011;63523;51.880;12.630;2022-11-12T04:49:28;7.97;;;2.77;;
74967;SDS011;63523;51.880;12.630;2022-11-12T04:51:53;8.55;;;2.97;;
74967;SDS011;63523;51.880;12.630;2022-11-12T04:54:31;7.37;;;2.63;;
74967;SDS011;63523;51.880;12.630;2022-11-12T04:56:57;7.57;;;2.90;;
74967;SDS011;63523;51.880;12.630;2022-11-12T04:59:23;8.10;;;3.05;;
74967;SDS011;63523;51.880;12.630;2022-11-12T05:01:49;9.47;;;3.33;;
74967;SDS011;63523;51.880;12.630;2022-11-12T05:04:14;8.20;;;2.90;;
74967;SDS011;63523;51.880;12.630;2022-11-12T05:06:40;7.25;;;3.00;;
74967;SDS011;63523;51.880;12.630;2022-11-12T05:09:18;6.57;;;2.58;;
74967;SDS011;63523;51.880;12.630;2022-11-12T05:11:45;10.63;;;3.37;;
74967;SDS011;63523;51.880;12.630;2022-11-12T05:14:11;8.60;;;2.90;;
74967;SDS011;63523;51.880;12.630;2022-11-12T05:16:36;7.90;;;2.77;;
74967;SDS011;63523;51.880;12.630;2022-11-12T05:19:02;7.05;;;2.50;;
74967;SDS011;63523;51.880;12.630;2022-11-12T05:21:28;7.33;;;2.33;;
74967;SDS011;63523;51.880;12.630;2022-11-12T05:24:12;7.20;;;2.47;;
74967;SDS011;63523;51.880;12.630;2022-11-12T05:26:37;7.93;;;2.70;;
74967;SDS011;63523;51.880;12.630;2022-11-12T05:29:03;8.83;;;2.73;;
74967;SDS011;63523;51.880;12.630;2022-11-12T05:31:29;8.63;;;3.10;;
74967;SDS011;63523;51.880;12.630;2022-11-12T05:33:55;7.43;;;2.83;;
74967;SDS011;63523;51.880;12.630;2022-11-12T05:36:20;7.47;;;2.63;;
74967;SDS011;63523;51.880;12.630;2022-11-12T05:38:46;8.17;;;3.30;;
74967;SDS011;63523;51.880;12.630;2022-11-12T05:41:12;7.95;;;2.97;;
74967;SDS011;63523;51.880;12.630;2022-11-12T05:43:37;9.87;;;3.40;;
74967;SDS011;63523;51.880;12.630;2022-11-12T05:46:03;8.10;;;2.90;;
74967;SDS011;63523;51.880;12.630;2022-11-12T05:48:29;7.43;;;3.08;;
74967;SDS011;63523;51.880;12.630;2022-11-12T05:50:54;8.00;;;3.10;;
74967;SDS011;63523;51.880;12.630;2022-11-12T05:53:20;9.82;;;2.70;;
74967;SDS011;63523;51.880;12.630;2022-11-12T05:55:45;9.90;;;2.37;;
74967;SDS011;63523;51.880;12.630;2022-11-12T05:58:11;7.13;;;2.70;;
74967;SDS011;63523;51.880;12.630;2022-11-12T06:00:36;7.07;;;2.90;;
74967;SDS011;63523;51.880;12.630;2022-11-12T06:03:09;6.67;;;2.97;;
74967;SDS011;63523;51.880;12.630;2022-11-12T06:05:36;9.07;;;3.30;;
74967;SDS011;63523;51.880;12.630;2022-11-12T06:08:02;8.88;;;2.95;;
74967;SDS011;63523;51.880;12.630;2022-11-12T06:10:29;8.00;;;2.70;;
74967;SDS011;63523;51.880;12.630;2022-11-12T06:12:58;7.50;;;2.63;;
74967;SDS011;63523;51.880;12.630;2022-11-12T06:15:23;9.43;;;3.13;;
74967;SDS011;63523;51.880;12.630;2022-11-12T06:17:54;7.32;;;2.95;;
74967;SDS011;63523;51.880;12.630;2022-11-12T06:20:20;9.30;;;2.93;;
74967;SDS011;63523;51.880;12.630;2022-11-12T06:22:46;9.68;;;2.90;;
74967;SDS011;63523;51.880;12.630;2022-11-12T06:25:12;8.30;;;3.20;;
74967;SDS011;63523;51.880;12.630;2022-11-12T06:27:37;8.67;;;3.00;;
74967;SDS011;63523;51.880;12.630;2022-11-12T06:30:03;7.23;;;2.87;;
74967;SDS011;63523;51.880;12.630;2022-11-12T06:32:30;10.02;;;3.67;;
74967;SDS011;63523;51.880;12.630;2022-11-12T06:34:56;9.32;;;3.30;;
74967;SDS011;63523;51.880;12.630;2022-11-12T06:37:21;7.30;;;2.87;;
74967;SDS011;63523;51.880;12.630;2022-11-12T06:39:47;8.53;;;3.33;;
74967;SDS011;63523;51.880;12.630;2022-11-12T06:42:13;9.25;;;3.35;;
74967;SDS011;63523;51.880;12.630;2022-11-12T06:44:39;9.57;;;2.88;;
74967;SDS011;63523;51.880;12.630;2022-11-12T06:47:05;8.03;;;2.97;;
74967;SDS011;63523;51.880;12.630;2022-11-12T06:49:30;8.98;;;3.25;;
74967;SDS011;63523;51.880;12.630;2022-11-12T06:51:56;9.80;;;3.13;;
74967;SDS011;63523;51.880;12.630;2022-11-12T06:54:21;9.48;;;3.03;;
74967;SDS011;63523;51.880;12.630;2022-11-12T06:56:47;11.47;;;3.43;;
74967;SDS011;63523;51.880;12.630;2022-11-12T06:59:13;8.57;;;2.83;;
74967;SDS011;63523;51.880;12.630;2022-11-12T07:01:38;9.75;;;2.88;;
74967;SDS011;63523;51.880;12.630;2022-11-12T07:04:04;8.67;;;2.93;;
74967;SDS011;63523;51.880;12.630;2022-11-12T07:06:29;8.40;;;2.97;;
74967;SDS011;63523;51.880;12.630;2022-11-12T07:08:55;8.18;;;3.00;;
74967;SDS011;63523;51.880;12.630;2022-11-12T07:11:20;9.47;;;3.53;;
74967;SDS011;63523;51.880;12.630;2022-11-12T07:13:46;13.97;;;5.50;;
74967;SDS011;63523;51.880;12.630;2022-11-12T07:16:12;12.90;;;5.70;;
74967;SDS011;63523;51.880;12.630;2022-11-12T07:18:42;11.73;;;6.00;;
74967;SDS011;63523;51.880;12.630;2022-11-12T07:21:09;10.90;;;4.13;;
74967;SDS011;63523;51.880;12.630;2022-11-12T07:23:36;11.00;;;5.07;;
74967;SDS011;63523;51.880;12.630;2022-11-12T07:26:21;10.73;;;4.57;;
74967;SDS011;63523;51.880;12.630;2022-11-12T07:28:49;14.45;;;5.32;;
74967;SDS011;63523;51.880;12.630;2022-11-12T07:31:16;13.03;;;4.93;;
74967;SDS011;63523;51.880;12.630;2022-11-12T07:33:43;11.95;;;5.53;;
74967;SDS011;63523;51.880;12.630;2022-11-12T07:36:13;14.50;;;5.85;;
74967;SDS011;63523;51.880;12.630;2022-11-12T07:38:40;10.75;;;5.15;;
74967;SDS011;63523;51.880;12.630;2022-11-12T07:41:14;13.00;;;5.13;;
74967;SDS011;63523;51.880;12.630;2022-11-12T07:43:42;10.43;;;4.87;;
74967;SDS011;63523;51.880;12.630;2022-11-12T07:46:19;13.18;;;5.10;;
74967;SDS011;63523;51.880;12.630;2022-11-12T07:48:46;13.50;;;5.43;;
74967;SDS011;63523;51.880;12.630;2022-11-12T07:53:40;11.43;;;4.90;;
74967;SDS011;63523;51.880;12.630;2022-11-12T07:56:11;13.45;;;5.68;;
74967;SDS011;63523;51.880;12.630;2022-11-12T07:58:40;12.02;;;5.32;;
74967;SDS011;63523;51.880;12.630;2022-11-12T08:01:06;12.57;;;5.83;;
74967;SDS011;63523;51.880;12.630;2022-11-12T08:03:32;13.10;;;6.43;;
74967;SDS011;63523;51.880;12.630;2022-11-12T08:06:01;14.33;;;7.07;;
74967;SDS011;63523;51.880;12.630;2022-11-12T08:08:26;15.43;;;7.67;;
74967;SDS011;63523;51.880;12.630;2022-11-12T08:10:53;16.42;;;7.28;;
74967;SDS011;63523;51.880;12.630;2022-11-12T08:13:22;15.98;;;7.22;;
74967;SDS011;63523;51.880;12.630;2022-11-12T08:15:48;14.43;;;7.20;;
74967;SDS011;63523;51.880;12.630;2022-11-12T08:18:13;13.05;;;6.55;;
74967;SDS011;63523;51.880;12.630;2022-11-12T08:20:39;13.20;;;6.23;;
74967;SDS011;63523;51.880;12.630;2022-11-12T08:23:05;15.00;;;6.63;;
74967;SDS011;63523;51.880;12.630;2022-11-12T08:25:30;12.97;;;6.40;;
74967;SDS011;63523;51.880;12.630;2022-11-12T08:27:59;13.53;;;6.17;;
74967;SDS011;63523;51.880;12.630;2022-11-12T08:30:25;15.57;;;6.72;;
74967;SDS011;63523;51.880;12.630;2022-11-12T08:33:02;14.48;;;6.72;;
74967;SDS011;63523;51.880;12.630;2022-11-12T08:35:29;13.65;;;6.68;;
74967;SDS011;63523;51.880;12.630;2022-11-12T08:38:03;15.80;;;6.23;;
74967;SDS011;63523;51.880;12.630;2022-11-12T08:40:31;13.05;;;6.15;;
74967;SDS011;63523;51.880;12.630;2022-11-12T08:45:36;13.18;;;6.00;;
74967;SDS011;63523;51.880;12.630;2022-11-12T08:48:04;11.20;;;5.20;;
74967;SDS011;63523;51.880;12.630;2022-11-12T08:50:32;13.07;;;5.75;;
74967;SDS011;63523;51.880;12.630;2022-11-12T08:53:05;15.05;;;5.82;;
74967;SDS011;63523;51.880;12.630;2022-11-12T08:55:33;13.52;;;6.38;;
74967;SDS011;63523;51.880;12.630;2022-11-12T08:57:59;15.35;;;5.97;;
74967;SDS011;63523;51.880;12.630;2022-11-12T09:00:32;13.40;;;6.03;;
74967;SDS011;63523;51.880;12.630;2022-11-12T09:03:00;13.60;;;5.95;;
74967;SDS011;63523;51.880;12.630;2022-11-12T09:05:26;13.13;;;5.18;;
74967;SDS011;63523;51.880;12.630;2022-11-12T09:07:59;15.32;;;6.70;;
74967;SDS011;63523;51.880;12.630;2022-11-12T09:10:26;14.65;;;6.20;;
74967;SDS011;63523;51.880;12.630;2022-11-12T09:12:52;11.00;;;5.60;;
74967;SDS011;63523;51.880;12.630;2022-11-12T09:15:21;16.38;;;5.90;;
74967;SDS011;63523;51.880;12.630;2022-11-12T09:17:53;14.35;;;5.72;;
74967;SDS011;63523;51.880;12.630;2022-11-12T09:20:19;13.38;;;5.95;;
74967;SDS011;63523;51.880;12.630;2022-11-12T09:22:45;19.77;;;6.23;;
74967;SDS011;63523;51.880;12.630;2022-11-12T09:25:10;16.50;;;6.30;;
74967;SDS011;63523;51.880;12.630;2022-11-12T09:27:36;11.70;;;5.68;;
74967;SDS011;63523;51.880;12.630;2022-11-12T09:30:01;13.50;;;6.40;;
74967;SDS011;63523;51.880;12.630;2022-11-12T09:32:28;18.58;;;7.10;;
74967;SDS011;63523;51.880;12.630;2022-11-12T09:34:54;15.17;;;6.47;;
74967;SDS011;63523;51.880;12.630;2022-11-12T09:37:19;14.25;;;6.65;;
74967;SDS011;63523;51.880;12.630;2022-11-12T09:39:45;19.27;;;8.10;;
74967;SDS011;63523;51.880;12.630;2022-11-12T09:42:18;19.83;;;9.17;;
74967;SDS011;63523;51.880;12.630;2022-11-12T09:44:50;19.08;;;9.10;;
74967;SDS011;63523;51.880;12.630;2022-11-12T09:47:41;18.58;;;8.55;;
74967;SDS011;63523;51.880;12.630;2022-11-12T09:50:15;21.48;;;9.32;;
74967;SDS011;63523;51.880;12.630;2022-11-12T09:53:01;26.27;;;10.37;;
74967;SDS011;63523;51.880;12.630;2022-11-12T09:55:33;37.40;;;13.80;;
74967;SDS011;63523;51.880;12.630;2022-11-12T09:58:07;71.50;;;23.20;;
74967;SDS011;63523;51.880;12.630;2022-11-12T10:00:35;71.20;;;24.48;;
74967;SDS011;63523;51.880;12.630;2022-11-12T10:03:03;42.80;;;14.85;;
74967;SDS011;63523;51.880;12.630;2022-11-12T10:05:48;18.17;;;7.23;;
74967;SDS011;63523;51.880;12.630;2022-11-12T10:19:56;11.07;;;4.90;;
74967;SDS011;63523;51.880;12.630;2022-11-12T10:24:58;8.85;;;4.05;;
74967;SDS011;63523;51.880;12.630;2022-11-12T10:27:38;9.27;;;5.03;;
74967;SDS011;63523;51.880;12.630;2022-11-12T10:30:06;10.70;;;5.40;;
74967;SDS011;63523;51.880;12.630;2022-11-12T10:32:41;8.70;;;4.80;;
74967;SDS011;63523;51.880;12.630;2022-11-12T10:35:09;13.52;;;5.93;;
74967;SDS011;63523;51.880;12.630;2022-11-12T10:37:41;11.13;;;5.20;;
74967;SDS011;63523;51.880;12.630;2022-11-12T10:40:25;9.75;;;5.60;;
74967;SDS011;63523;51.880;12.630;2022-11-12T10:42:55;9.43;;;5.13;;
74967;SDS011;63523;51.880;12.630;2022-11-12T10:45:21;10.83;;;5.57;;
74967;SDS011;63523;51.880;12.630;2022-11-12T10:47:47;9.23;;;4.85;;
74967;SDS011;63523;51.880;12.630;2022-11-12T10:50:15;8.98;;;5.32;;
74967;SDS011;63523;51.880;12.630;2022-11-12T10:52:54;11.05;;;4.82;;
74967;SDS011;63523;51.880;12.630;2022-11-12T10:55:32;9.38;;;4.95;;
74967;SDS011;63523;51.880;12.630;2022-11-12T11:00:34;13.60;;;4.60;;
74967;SDS011;63523;51.880;12.630;2022-11-12T11:03:00;8.80;;;4.63;;
74967;SDS011;63523;51.880;12.630;2022-11-12T11:08:03;8.55;;;4.40;;
74967;SDS011;63523;51.880;12.630;2022-11-12T11:10:31;9.30;;;4.40;;
74967;SDS011;63523;51.880;12.630;2022-11-12T11:13:08;8.23;;;4.20;;
74967;SDS011;63523;51.880;12.630;2022-11-12T11:16:01;8.35;;;4.30;;
74967;SDS011;63523;51.880;12.630;2022-11-12T11:18:28;9.23;;;4.20;;
74967;SDS011;63523;51.880;12.630;2022-11-12T11:24:10;6.23;;;2.60;;
74967;SDS011;63523;51.880;12.630;2022-11-12T11:27:08;6.60;;;2.70;;
74967;SDS011;63523;51.880;12.630;2022-11-12T11:38:06;6.93;;;2.67;;
74967;SDS011;63523;51.880;12.630;2022-11-12T11:43:44;5.93;;;2.10;;
74967;SDS011;63523;51.880;12.630;2022-11-12T11:52:17;6.37;;;2.60;;
74967;SDS011;63523;51.880;12.630;2022-11-12T12:00:24;7.70;;;3.08;;
74967;SDS011;63523;51.880;12.630;2022-11-12T12:03:24;8.15;;;2.95;;
74967;SDS011;63523;51.880;12.630;2022-11-12T12:06:25;6.17;;;2.30;;
74967;SDS011;63523;51.880;12.630;2022-11-12T12:25:58;6.00;;;2.10;;
74967;SDS011;63523;51.880;12.630;2022-11-12T12:28:32;5.70;;;2.20;;
74967;SDS011;63523;51.880;12.630;2022-11-12T12:31:06;6.55;;;2.60;;
74967;SDS011;63523;51.880;12.630;2022-11-12T12:33:42;5.90;;;2.33;;
74967;SDS011;63523;51.880;12.630;2022-11-12T12:36:14;6.70;;;2.60;;
74967;SDS011;63523;51.880;12.630;2022-11-12T12:44:20;5.60;;;2.70;;
74967;SDS011;63523;51.880;12.630;2022-11-12T12:47:06;7.90;;;3.10;;
74967;SDS011;63523;51.880;12.630;2022-11-12T12:49:35;7.95;;;3.40;;
74967;SDS011;63523;51.880;12.630;2022-11-12T12:52:01;6.63;;;3.35;;
74967;SDS011;63523;51.880;12.630;2022-11-12T12:56:59;7.20;;;3.15;;
74967;SDS011;63523;51.880;12.630;2022-11-12T12:59:25;6.75;;;2.20;;
74967;SDS011;63523;51.880;12.630;2022-11-12T13:02:00;3.90;;;1.50;;
74967;SDS011;63523;51.880;12.630;2022-11-12T13:07:15;5.03;;;2.10;;
74967;SDS011;63523;51.880;12.630;2022-11-12T13:09:41;6.63;;;2.20;;
74967;SDS011;63523;51.880;12.630;2022-11-12T13:12:07;6.07;;;2.00;;
74967;SDS011;63523;51.880;12.630;2022-11-12T13:17:02;5.33;;;1.80;;
74967;SDS011;63523;51.880;12.630;2022-11-12T13:19:33;7.80;;;2.10;;
74967;SDS011;63523;51.880;12.630;2022-11-12T13:37:41;4.20;;;0.77;;
74967;SDS011;63523;51.880;12.630;2022-11-12T13:41:05;3.70;;;0.90;;
74967;SDS011;63523;51.880;12.630;2022-11-12T13:45:40;5.30;;;1.10;;
74967;SDS011;63523;51.880;12.630;2022-11-12T13:50:56;8.37;;;3.50;;
74967;SDS011;63523;51.880;12.630;2022-11-12T13:53:26;8.05;;;3.30;;
74967;SDS011;63523;51.880;12.630;2022-11-12T13:55:54;14.02;;;7.20;;
74967;SDS011;63523;51.880;12.630;2022-11-12T14:00:59;7.20;;;3.00;;
74967;SDS011;63523;51.880;12.630;2022-11-12T14:03:39;6.85;;;2.58;;
74967;SDS011;63523;51.880;12.630;2022-11-12T14:06:13;10.27;;;3.00;;
74967;SDS011;63523;51.880;12.630;2022-11-12T14:17:41;10.23;;;3.42;;
74967;SDS011;63523;51.880;12.630;2022-11-12T14:20:25;6.93;;;2.58;;
74967;SDS011;63523;51.880;12.630;2022-11-12T14:22:56;18.83;;;8.07;;
74967;SDS011;63523;51.880;12.630;2022-11-12T14:25:49;26.77;;;11.43;;
74967;SDS011;63523;51.880;12.630;2022-11-12T14:30:52;27.60;;;13.82;;
74967;SDS011;63523;51.880;12.630;2022-11-12T14:33:19;40.53;;;19.00;;
74967;SDS011;63523;51.880;12.630;2022-11-12T14:35:46;28.67;;;12.77;;
74967;SDS011;63523;51.880;12.630;2022-11-12T14:38:19;11.60;;;5.07;;
74967;SDS011;63523;51.880;12.630;2022-11-12T14:40:54;7.35;;;3.47;;
74967;SDS011;63523;51.880;12.630;2022-11-12T14:46:02;5.93;;;2.53;;
74967;SDS011;63523;51.880;12.630;2022-11-12T14:48:34;6.97;;;3.00;;
74967;SDS011;63523;51.880;12.630;2022-11-12T14:51:10;17.15;;;8.60;;
74967;SDS011;63523;51.880;12.630;2022-11-12T14:53:39;22.58;;;10.15;;
74967;SDS011;63523;51.880;12.630;2022-11-12T14:56:07;11.05;;;4.57;;
74967;SDS011;63523;51.880;12.630;2022-11-12T14:58:38;8.48;;;3.80;;
74967;SDS011;63523;51.880;12.630;2022-11-12T15:03:42;6.60;;;2.42;;
74967;SDS011;63523;51.880;12.630;2022-11-12T15:06:08;7.00;;;2.63;;
74967;SDS011;63523;51.880;12.630;2022-11-12T15:08:36;6.70;;;2.80;;
74967;SDS011;63523;51.880;12.630;2022-11-12T15:13:57;10.38;;;4.28;;
74967;SDS011;63523;51.880;12.630;2022-11-12T15:16:29;16.85;;;8.30;;
74967;SDS011;63523;51.880;12.630;2022-11-12T15:21:25;6.87;;;2.97;;
74967;SDS011;63523;51.880;12.630;2022-11-12T15:24:05;6.22;;;3.10;;
74967;SDS011;63523;51.880;12.630;2022-11-12T15:26:41;7.63;;;2.80;;
74967;SDS011;63523;51.880;12.630;2022-11-12T15:31:42;8.17;;;3.43;;
74967;SDS011;63523;51.880;12.630;2022-11-12T15:37:04;11.02;;;4.35;;
74967;SDS011;63523;51.880;12.630;2022-11-12T15:39:51;8.05;;;2.78;;
74967;SDS011;63523;51.880;12.630;2022-11-12T15:44:50;7.87;;;3.23;;
74967;SDS011;63523;51.880;12.630;2022-11-12T15:47:22;8.02;;;3.33;;
74967;SDS011;63523;51.880;12.630;2022-11-12T15:49:51;9.97;;;3.60;;
74967;SDS011;63523;51.880;12.630;2022-11-12T15:52:18;8.73;;;3.30;;
74967;SDS011;63523;51.880;12.630;2022-11-12T15:54:44;7.10;;;2.92;;
74967;SDS011;63523;51.880;12.630;2022-11-12T15:57:13;6.88;;;2.92;;
74967;SDS011;63523;51.880;12.630;2022-11-12T15:59:40;7.37;;;2.57;;
74967;SDS011;63523;51.880;12.630;2022-11-12T16:02:16;6.30;;;2.63;;
74967;SDS011;63523;51.880;12.630;2022-11-12T16:04:41;5.93;;;2.35;;
74967;SDS011;63523;51.880;12.630;2022-11-12T16:07:07;5.90;;;2.50;;
74967;SDS011;63523;51.880;12.630;2022-11-12T16:09:33;7.55;;;3.22;;
74967;SDS011;63523;51.880;12.630;2022-11-12T16:11:59;6.93;;;3.27;;
74967;SDS011;63523;51.880;12.630;2022-11-12T16:14:26;8.85;;;3.60;;
74967;SDS011;63523;51.880;12.630;2022-11-12T16:16:52;8.18;;;3.65;;
74967;SDS011;63523;51.880;12.630;2022-11-12T16:19:18;8.85;;;3.58;;
74967;SDS011;63523;51.880;12.630;2022-11-12T16:21:43;9.10;;;3.60;;
74967;SDS011;63523;51.880;12.630;2022-11-12T16:24:09;8.18;;;3.53;;
74967;SDS011;63523;51.880;12.630;2022-11-12T16:26:35;8.70;;;4.10;;
74967;SDS011;63523;51.880;12.630;2022-11-12T16:29:02;9.23;;;4.53;;
74967;SDS011;63523;51.880;12.630;2022-11-12T16:31:35;7.83;;;3.50;;
74967;SDS011;63523;51.880;12.630;2022-11-12T16:34:00;9.55;;;4.22;;
74967;SDS011;63523;51.880;12.630;2022-11-12T16:36:26;8.87;;;4.30;;
74967;SDS011;63523;51.880;12.630;2022-11-12T16:38:51;7.77;;;3.93;;
74967;SDS011;63523;51.880;12.630;2022-11-12T16:41:17;9.88;;;4.13;;
74967;SDS011;63523;51.880;12.630;2022-11-12T16:43:42;10.53;;;4.17;;
74967;SDS011;63523;51.880;12.630;2022-11-12T16:46:18;7.03;;;4.00;;
74967;SDS011;63523;51.880;12.630;2022-11-12T16:48:50;11.95;;;3.97;;
74967;SDS011;63523;51.880;12.630;2022-11-12T16:51:16;8.73;;;3.60;;
74967;SDS011;63523;51.880;12.630;2022-11-12T16:53:44;7.40;;;3.53;;
74967;SDS011;63523;51.880;12.630;2022-11-12T16:56:15;9.13;;;4.18;;
74967;SDS011;63523;51.880;12.630;2022-11-12T16:58:45;8.70;;;4.25;;
74967;SDS011;63523;51.880;12.630;2022-11-12T17:01:23;9.85;;;4.10;;